This is the latest recevied weather packets stored in our database for station/object SV2LPQ-2. If no packets are shown the sender has not sent any weather packets the latest 10 day(s).
| Time | Temp. | Humidity | Pressure | Rain* | Wind** | Luminosity | Snow |
|---|---|---|---|---|---|---|---|
| 1777751256 | 11.67° C | 70% | 1042.5 hPa | 0 mm | - | - | - |
| 1777750755 | 11.67° C | 71% | 1042.5 hPa | 0 mm | - | - | - |
| 1777750255 | 11.67° C | 70% | 1042.5 hPa | 0 mm | - | - | - |
| 1777749756 | 11.11° C | 70% | 1042.5 hPa | 0 mm | - | - | - |
| 1777749255 | 11.11° C | 69% | 1042.5 hPa | 0 mm | - | - | - |
| 1777748755 | 11.67° C | 68% | 1042.5 hPa | 0 mm | - | - | - |
| 1777748256 | 11.11° C | 67% | 1042.5 hPa | 0 mm | - | - | - |
| 1777747755 | 11.11° C | 67% | 1042.5 hPa | 0 mm | - | - | - |
| 1777747255 | 11.11° C | 67% | 1042.5 hPa | 0 mm | - | - | - |
| 1777746756 | 11.11° C | 67% | 1042.5 hPa | 0 mm | - | - | - |
| 1777746255 | 11.67° C | 66% | 1042.5 hPa | 0 mm | - | - | - |
| 1777745755 | 11.67° C | 64% | 1042.5 hPa | 0 mm | - | - | - |
| 1777745256 | 11.67° C | 64% | 1042.5 hPa | 0 mm | - | - | - |
| 1777744755 | 12.22° C | 62% | 1042.5 hPa | 0 mm | - | - | - |
| 1777744255 | 12.22° C | 60% | 1042.5 hPa | 0 mm | - | - | - |
| 1777743756 | 12.78° C | 58% | 1042.5 hPa | 0 mm | - | - | - |
| 1777743255 | 13.33° C | 56% | 1042.5 hPa | 0 mm | - | - | - |
| 1777742755 | 13.89° C | 54% | 1042.5 hPa | 0 mm | - | - | - |
| 1777742256 | 14.44° C | 49% | 1042.5 hPa | 0 mm | - | - | - |
| 1777741755 | 14.44° C | 48% | 1042.5 hPa | 0 mm | - | - | - |
| 1777741255 | 15° C | 46% | 1042.5 hPa | 0 mm | - | - | - |
| 1777740756 | 15° C | 45% | 1042.5 hPa | 0 mm | - | - | - |
| 1777740255 | 15° C | 48% | 1042.5 hPa | 0 mm | - | - | - |
| 1777739755 | 15° C | 47% | 1042.5 hPa | 0 mm | - | - | - |
| 1777739255 | 15° C | 47% | 1042.5 hPa | 0 mm | - | - | - |
* Rain latest hour (hover to see other rain measurements)
** Current wind speed in m/s (hover to see current wind gust speed)